Time;durP1;ratioP1;P1;durP2;ratioP2;P2;SDS_P1;SDS_P2;PMS_P1;PMS_P2;Temp;Humidity;BMP_temperature;BMP_pressure;BME280_temperature;BME280_humidity;BME280_pressure;Samples;Min_cycle;Max_cycle;Signal;HPM_P1;HPM_P2
2022/12/05 00:02:00;;;;;;;12.07;7.30;;;;;;;12.42;81.53;100856.75;5034357;28;20049;-70
2022/12/05 00:04:28;;;;;;;10.73;6.63;;;;;;;12.41;81.72;100866.59;5034472;28;20049;-70
2022/12/05 00:06:56;;;;;;;10.15;6.80;;;;;;;12.40;81.31;100874.72;5035021;28;20061;-70
2022/12/05 00:09:24;;;;;;;11.07;7.25;;;;;;;12.39;81.29;100873.00;5034475;28;20053;-70
2022/12/05 00:11:52;;;;;;;11.20;6.85;;;;;;;12.37;81.43;100870.41;5034331;28;20049;-70
2022/12/05 00:14:20;;;;;;;13.73;6.78;;;;;;;12.36;81.16;100873.19;5033159;28;20054;-70
2022/12/05 00:16:50;;;;;;;10.63;6.90;;;;;;;12.34;81.36;100870.56;5033851;28;20488;-70
2022/12/05 00:19:18;;;;;;;10.52;6.70;;;;;;;12.28;81.39;100870.94;5034097;28;20384;-70
2022/12/05 00:21:46;;;;;;;11.07;6.20;;;;;;;12.27;81.26;100864.72;5034062;28;20049;-70
2022/12/05 00:24:15;;;;;;;10.30;6.32;;;;;;;12.27;81.40;100869.22;5033013;28;20103;-70
2022/12/05 00:26:44;;;;;;;10.57;6.55;;;;;;;12.26;81.41;100865.69;5034111;28;20053;-70
2022/12/05 00:29:13;;;;;;;10.57;6.80;;;;;;;12.23;81.09;100863.16;5034508;28;20430;-70
2022/12/05 00:31:41;;;;;;;12.07;6.40;;;;;;;12.21;81.23;100864.22;5034231;28;20048;-70
2022/12/05 00:34:11;;;;;;;10.38;6.45;;;;;;;12.24;81.24;100861.34;5033998;28;20069;-70
2022/12/05 00:36:39;;;;;;;11.57;6.70;;;;;;;12.22;81.13;100857.91;5033893;28;20046;-70
2022/12/05 00:39:10;;;;;;;11.45;6.20;;;;;;;12.19;80.98;100855.41;5032842;28;20046;-70
2022/12/05 00:41:39;;;;;;;10.93;6.72;;;;;;;12.18;80.96;100861.72;5033448;28;20077;-70
2022/12/05 00:44:07;;;;;;;10.25;6.47;;;;;;;12.17;81.09;100862.66;5033753;28;20041;-70
2022/12/05 00:46:36;;;;;;;12.10;6.47;;;;;;;12.16;81.11;100858.25;5034268;28;20045;-71
2022/12/05 00:49:07;;;;;;;10.40;6.63;;;;;;;12.15;80.86;100849.34;5034204;28;20049;-71
2022/12/05 00:51:38;;;;;;;10.05;6.68;;;;;;;12.16;80.85;100855.56;5034114;28;20064;-71
2022/12/05 00:54:09;;;;;;;9.80;6.57;;;;;;;12.15;80.91;100862.72;5034455;28;20054;-71
2022/12/05 00:56:38;;;;;;;11.15;6.60;;;;;;;12.15;80.93;100856.53;5034757;28;20050;-71
2022/12/05 00:59:07;;;;;;;10.68;6.55;;;;;;;12.13;80.71;100861.97;5032893;28;20053;-70
2022/12/05 01:01:37;;;;;;;11.40;6.78;;;;;;;12.13;80.79;100853.09;5032624;28;20103;-70
2022/12/05 01:04:10;;;;;;;10.65;6.70;;;;;;;12.12;80.73;100849.53;5034176;28;20045;-70
2022/12/05 01:06:40;;;;;;;9.60;6.53;;;;;;;12.11;80.51;100855.00;5035618;28;20057;-70
2022/12/05 01:09:10;;;;;;;11.60;6.53;;;;;;;12.09;80.69;100849.72;5034284;28;20049;-70
2022/12/05 01:11:39;;;;;;;12.50;6.70;;;;;;;12.08;80.60;100850.69;5033854;28;20124;-70
2022/12/05 01:14:09;;;;;;;10.35;6.05;;;;;;;12.09;80.42;100854.22;5033587;28;20408;-70
2022/12/05 01:16:39;;;;;;;9.68;6.18;;;;;;;12.08;80.42;100847.16;5033902;28;20046;-69
2022/12/05 01:19:11;;;;;;;9.40;5.70;;;;;;;12.07;80.54;100856.13;5034036;28;20073;-70
2022/12/05 01:21:40;;;;;;;11.75;6.78;;;;;;;12.10;80.23;100843.44;5033723;28;20037;-70
2022/12/05 01:24:09;;;;;;;9.43;5.43;;;;;;;12.10;80.16;100840.75;5033465;28;20484;-70
2022/12/05 01:26:37;;;;;;;10.27;5.70;;;;;;;12.09;80.00;100838.19;5033927;28;20061;-70
2022/12/05 01:29:06;;;;;;;9.52;5.60;;;;;;;12.09;80.12;100839.03;5033802;28;20057;-70
2022/12/05 01:31:37;;;;;;;10.07;5.90;;;;;;;12.09;80.08;100841.72;5033592;28;20045;-70
2022/12/05 01:34:07;;;;;;;9.73;6.05;;;;;;;12.09;79.93;100838.19;5034101;28;20061;-70
2022/12/05 01:36:35;;;;;;;9.35;5.75;;;;;;;12.09;80.01;100835.50;5033606;28;20057;-70
2022/12/05 01:39:05;;;;;;;9.25;5.88;;;;;;;12.08;79.67;100836.47;5034362;28;20049;-70
2022/12/05 01:41:35;;;;;;;9.95;6.07;;;;;;;12.07;79.79;100832.06;5033391;28;20156;-70
2022/12/05 01:44:05;;;;;;;9.15;5.38;;;;;;;12.06;79.77;100838.31;5033405;28;20077;-70
2022/12/05 01:46:35;;;;;;;9.32;5.38;;;;;;;12.04;79.68;100831.25;5033669;28;20526;-70
2022/12/05 01:49:09;;;;;;;8.50;5.32;;;;;;;12.04;79.75;100831.25;5035191;28;20130;-70
2022/12/05 01:51:39;;;;;;;7.65;5.22;;;;;;;12.03;79.80;100832.22;5037056;28;20049;-70
2022/12/05 01:54:10;;;;;;;7.47;5.22;;;;;;;12.01;79.72;100830.59;5037545;28;20447;-70
2022/12/05 01:56:40;;;;;;;7.40;5.07;;;;;;;12.00;79.58;100835.06;5036874;28;20045;-70
2022/12/05 01:59:11;;;;;;;7.53;5.40;;;;;;;11.98;79.76;100842.31;5039815;28;20071;-70
2022/12/05 02:01:41;;;;;;;9.20;5.68;;;;;;;11.98;79.64;100845.00;5056706;28;20068;-70
2022/12/05 02:04:10;;;;;;;8.50;5.43;;;;;;;11.97;79.77;100839.75;5057415;28;20048;-70
2022/12/05 02:06:39;;;;;;;8.45;5.18;;;;;;;11.97;79.56;100842.41;5057079;28;20080;-70
2022/12/05 02:09:07;;;;;;;8.02;4.88;;;;;;;11.95;79.63;100834.44;5057127;28;20044;-70
2022/12/05 02:11:44;;;;;;;7.97;4.80;;;;;;;11.93;79.39;100831.00;5055780;28;20136;-70
2022/12/05 02:14:24;;;;;;;7.22;4.50;;;;;;;11.93;79.43;100833.69;5056521;28;20123;-70
2022/12/05 02:17:02;;;;;;;8.63;5.18;;;;;;;11.93;79.32;100839.03;5056706;28;20068;-70
2022/12/05 02:19:54;;;;;;;8.43;4.80;;;;;;;11.93;79.39;100838.16;5057113;28;20094;-70
2022/12/05 02:23:05;;;;;;;7.53;5.00;;;;;;;11.92;79.29;100839.13;5056628;28;20041;-70
2022/12/05 02:26:00;;;;;;;8.48;4.97;;;;;;;11.91;79.49;100840.94;5034345;28;20380;-70
2022/12/05 02:28:45;;;;;;;7.95;4.97;;;;;;;11.90;79.27;100838.34;5053394;28;20049;-70
2022/12/05 02:31:19;;;;;;;7.40;4.38;;;;;;;11.89;79.37;100842.84;5056201;28;20041;-70
2022/12/05 02:33:50;;;;;;;7.82;4.80;;;;;;;11.88;79.24;100851.81;5056816;28;20052;-70
2022/12/05 02:36:23;;;;;;;6.95;4.70;;;;;;;11.88;79.40;100854.47;5056447;28;20116;-70
2022/12/05 02:38:59;;;;;;;9.17;5.33;;;;;;;11.87;79.18;100855.44;5056194;28;20052;-70
2022/12/05 02:41:33;;;;;;;8.00;4.85;;;;;;;11.87;79.13;100843.84;5057807;28;20049;-70
2022/12/05 02:44:05;;;;;;;7.20;4.55;;;;;;;11.86;79.07;100848.34;5056216;28;20045;-70
2022/12/05 02:46:39;;;;;;;8.45;4.82;;;;;;;11.86;79.12;100851.00;5056451;28;20449;-70
2022/12/05 02:49:12;;;;;;;5.88;4.00;;;;;;;11.86;79.08;100852.81;5056369;28;20128;-70
2022/12/05 02:51:44;;;;;;;7.50;4.78;;;;;;;11.85;79.15;100846.63;5056266;28;20055;-70
2022/12/05 02:54:16;;;;;;;7.00;4.10;;;;;;;11.83;78.96;100843.16;5055909;28;20095;-71
2022/12/05 02:56:46;;;;;;;7.78;4.63;;;;;;;11.84;79.21;100844.91;5056344;28;20055;-70
2022/12/05 02:59:14;;;;;;;7.80;4.47;;;;;;;11.83;79.01;100845.84;5055653;28;20110;-70
2022/12/05 03:01:52;;;;;;;7.60;4.60;;;;;;;11.83;79.05;100853.88;5056315;28;20442;-70
2022/12/05 03:04:24;;;;;;;7.45;4.38;;;;;;;11.82;78.91;100852.13;5055786;28;20041;-70
2022/12/05 03:06:56;;;;;;;7.45;4.45;;;;;;;11.80;78.82;100856.72;5056282;28;20053;-70
2022/12/05 03:09:30;;;;;;;7.57;4.32;;;;;;;11.77;79.08;100859.50;5055826;28;20088;-70
2022/12/05 03:12:04;;;;;;;7.43;4.70;;;;;;;11.78;79.22;100863.06;5056023;28;20052;-70
2022/12/05 03:14:38;;;;;;;6.60;4.35;;;;;;;11.76;79.01;100865.81;5055793;28;20045;-70
2022/12/05 03:17:13;;;;;;;6.72;4.32;;;;;;;11.76;79.07;100868.47;5055807;28;20045;-70
2022/12/05 03:19:49;;;;;;;6.72;4.43;;;;;;;11.75;79.29;100872.97;5056020;28;20080;-70
2022/12/05 03:22:26;;;;;;;7.82;4.63;;;;;;;11.75;79.15;100856.06;5054226;28;20111;-70
2022/12/05 03:24:54;;;;;;;6.60;3.95;;;;;;;11.74;79.09;100865.03;5056088;28;20111;-70
2022/12/05 03:27:27;;;;;;;6.90;3.88;;;;;;;11.72;79.34;100862.44;5054764;28;20061;-70
2022/12/05 03:30:02;;;;;;;7.65;4.15;;;;;;;11.71;79.04;100859.88;5055281;28;20051;-70
2022/12/05 03:32:38;;;;;;;6.88;3.83;;;;;;;11.71;79.18;100854.53;5055409;28;20040;-70
2022/12/05 03:35:11;;;;;;;5.53;3.83;;;;;;;11.70;78.90;100859.00;5055353;28;20466;-70
2022/12/05 03:37:47;;;;;;;6.35;4.07;;;;;;;11.70;79.06;100863.50;5054000;28;20049;-70
2022/12/05 03:40:26;;;;;;;6.22;3.63;;;;;;;11.69;78.87;100864.44;5055248;28;20580;-70
2022/12/05 03:42:59;;;;;;;6.28;3.80;;;;;;;11.70;78.87;100861.69;5055462;28;20048;-70
2022/12/05 03:45:33;;;;;;;6.30;3.83;;;;;;;11.71;78.95;100863.41;5054717;28;20102;-70
2022/12/05 03:48:10;;;;;;;5.97;3.85;;;;;;;11.71;78.85;100865.22;5054965;28;20052;-70
2022/12/05 03:50:43;;;;;;;6.88;4.18;;;;;;;11.70;78.83;100864.34;5055244;28;20045;-71
2022/12/05 03:53:16;;;;;;;5.70;3.65;;;;;;;11.71;78.65;100865.22;5055160;28;20049;-71
2022/12/05 03:55:54;;;;;;;6.68;4.00;;;;;;;11.70;78.52;100858.16;5055758;28;20048;-70
2022/12/05 03:58:29;;;;;;;6.70;4.00;;;;;;;11.69;78.79;100857.28;5054370;28;20490;-70
2022/12/05 04:01:01;;;;;;;7.57;4.13;;;;;;;11.68;78.65;100860.91;5054671;28;20416;-70
2022/12/05 04:03:38;;;;;;;6.20;3.60;;;;;;;11.67;78.53;100856.47;5054962;28;20132;-70
2022/12/05 04:06:14;;;;;;;7.25;4.22;;;;;;;11.69;78.33;100859.09;5053772;28;20085;-70
2022/12/05 04:08:47;;;;;;;7.38;4.30;;;;;;;11.67;78.75;100842.25;5054446;28;20041;-70
2022/12/05 04:11:19;;;;;;;7.03;4.10;;;;;;;11.65;78.50;100853.03;5053848;28;20056;-70
2022/12/05 04:13:52;;;;;;;6.25;4.05;;;;;;;11.67;78.45;100852.94;5054402;28;20128;-70
2022/12/05 04:19:18;;;;;;;5.80;3.70;;;;;;;11.65;78.60;100860.19;5036554;28;20048;-70
2022/12/05 04:21:49;;;;;;;6.28;3.88;;;;;;;11.63;78.44;100862.09;5053887;28;20045;-70
2022/12/05 04:27:28;;;;;;;5.85;3.40;;;;;;;11.62;78.39;100860.38;5012541;28;20129;-70
2022/12/05 04:30:03;;;;;;;6.28;3.70;;;;;;;11.62;78.19;100855.88;5012670;28;20424;-70
2022/12/05 04:32:40;;;;;;;6.85;3.90;;;;;;;11.62;78.25;100860.38;5036091;28;20388;-70
2022/12/05 04:35:17;;;;;;;6.15;4.00;;;;;;;11.62;78.50;100860.38;5054347;28;20076;-70
2022/12/05 04:37:49;;;;;;;6.15;3.75;;;;;;;11.61;78.42;100861.31;5052384;28;20041;-70
2022/12/05 04:40:23;;;;;;;6.70;3.75;;;;;;;11.61;78.30;100864.00;5053972;28;20049;-69
2022/12/05 04:42:52;;;;;;;;;;;;;;;11.61;78.35;100858.66;5053302;28;20103;-69
2022/12/05 04:45:22;;;;;;;6.40;4.05;;;;;;;11.60;78.36;100860.47;5053452;28;19942;-69
2022/12/05 04:47:55;;;;;;;5.35;3.50;;;;;;;11.59;78.33;100858.75;5054242;28;20095;-69
2022/12/05 04:50:28;;;;;;;6.30;3.55;;;;;;;11.60;78.31;100856.94;5053665;28;20068;-69
2022/12/05 04:52:59;;;;;;;6.22;3.65;;;;;;;11.59;78.28;100856.06;5053583;28;20131;-69
2022/12/05 04:55:30;;;;;;;6.60;4.15;;;;;;;11.58;78.25;100854.34;5054409;28;20049;-69
2022/12/05 04:58:06;;;;;;;6.00;3.53;;;;;;;11.58;78.14;100853.44;5053697;28;20112;-69
2022/12/05 05:00:45;;;;;;;6.25;3.47;;;;;;;11.58;78.17;100840.97;5054031;28;20051;-69
2022/12/05 05:03:17;;;;;;;4.50;3.10;;;;;;;11.56;78.33;100840.19;5054113;28;20395;-69
2022/12/05 05:05:49;;;;;;;6.43;3.72;;;;;;;11.56;78.17;100833.97;5053579;28;20048;-69
2022/12/05 05:08:18;;;;;;;5.90;3.72;;;;;;;11.56;78.10;100844.66;5053522;28;20392;-69
2022/12/05 05:10:55;;;;;;;6.53;4.10;;;;;;;11.55;78.23;100835.78;5053672;28;20069;-69
2022/12/05 05:13:23;;;;;;;7.43;4.07;;;;;;;11.55;78.03;100838.47;5053327;28;20041;-69
2022/12/05 05:15:51;;;;;;;6.00;3.65;;;;;;;11.55;78.05;100842.94;5052232;28;20456;-69
2022/12/05 05:18:19;;;;;;;5.50;3.45;;;;;;;11.54;78.08;100836.75;5052846;28;20479;-69
2022/12/05 05:20:48;;;;;;;6.53;4.00;;;;;;;11.54;78.09;100839.41;5053045;28;20044;-69
2022/12/05 05:23:16;;;;;;;5.25;3.53;;;;;;;11.53;78.14;100845.69;5056757;28;20045;-69
2022/12/05 05:25:44;;;;;;;5.72;3.70;;;;;;;11.52;78.11;100843.97;5057253;28;20044;-69
2022/12/05 05:28:13;;;;;;;6.40;3.70;;;;;;;11.52;78.11;100848.47;5056949;28;20492;-70
2022/12/05 05:30:41;;;;;;;5.80;3.25;;;;;;;11.52;78.07;100856.47;5057327;28;20102;-70
2022/12/05 05:33:09;;;;;;;5.82;3.40;;;;;;;11.51;78.26;100868.13;5056863;28;20095;-70
2022/12/05 05:35:37;;;;;;;6.22;3.85;;;;;;;11.53;77.81;100866.22;5056174;28;20057;-69
2022/12/05 05:38:07;;;;;;;6.22;3.55;;;;;;;11.52;78.06;100865.34;5057216;28;20048;-69
2022/12/05 05:40:36;;;;;;;5.95;3.67;;;;;;;11.51;78.00;100860.09;5057515;28;20041;-69
2022/12/05 05:43:04;;;;;;;5.95;3.80;;;;;;;11.51;77.98;100863.63;5057003;28;20051;-69
2022/12/05 05:45:32;;;;;;;6.57;3.58;;;;;;;11.51;78.00;100865.44;5056905;28;20045;-70
2022/12/05 05:48:00;;;;;;;5.75;3.65;;;;;;;11.50;77.92;100861.03;5057000;28;20048;-69
2022/12/05 05:50:29;;;;;;;6.00;3.85;;;;;;;11.50;77.93;100867.25;5056824;28;20045;-69
2022/12/05 05:52:57;;;;;;;6.38;4.00;;;;;;;11.50;77.97;100871.72;5056685;28;20083;-69
2022/12/05 05:55:26;;;;;;;6.13;3.53;;;;;;;11.49;78.10;100872.69;5057193;28;20114;-70
2022/12/05 05:57:55;;;;;;;5.57;3.60;;;;;;;11.49;77.92;100865.53;5055294;28;20049;-69
2022/12/05 06:00:24;;;;;;;5.53;3.35;;;;;;;11.49;77.82;100873.53;5072070;28;20190;-70
2022/12/05 06:02:52;;;;;;;5.57;3.67;;;;;;;11.49;77.91;100868.19;5059861;28;20051;-70
2022/12/05 06:05:20;;;;;;;6.38;3.30;;;;;;;11.49;77.89;100864.66;5067888;28;20053;-70
2022/12/05 06:07:48;;;;;;;6.20;3.75;;;;;;;11.46;77.90;100871.00;5056518;28;20098;-70
2022/12/05 06:10:17;;;;;;;6.22;3.72;;;;;;;11.45;77.82;100870.16;5054920;28;20106;-69
2022/12/05 06:12:46;;;;;;;5.72;3.60;;;;;;;11.45;77.81;100870.16;5055996;28;20049;-69
2022/12/05 06:15:14;;;;;;;5.82;3.38;;;;;;;11.47;77.91;100875.41;5055203;28;20048;-69
2022/12/05 06:17:42;;;;;;;6.90;3.90;;;;;;;11.48;77.68;100879.81;5054761;28;20049;-69
2022/12/05 06:20:12;;;;;;;6.00;3.60;;;;;;;11.45;77.69;100885.31;5056708;28;20369;-69
2022/12/05 06:22:40;;;;;;;6.47;3.78;;;;;;;11.45;77.87;100896.00;5056045;28;20072;-70
2022/12/05 06:25:09;;;;;;;6.03;3.60;;;;;;;11.46;77.72;100890.56;5056494;28;20136;-70
2022/12/05 06:27:37;;;;;;;4.85;3.13;;;;;;;11.46;77.66;100887.91;5055862;28;20142;-70
2022/12/05 06:30:08;;;;;;;6.28;3.58;;;;;;;11.45;77.59;100888.84;5055900;28;20080;-70
2022/12/05 06:32:37;;;;;;;5.68;3.60;;;;;;;11.45;77.79;100894.19;5056267;28;20071;-70
2022/12/05 06:35:14;;;;;;;5.72;3.55;;;;;;;11.44;77.61;100892.47;5053385;28;20384;-70
2022/12/05 06:37:42;;;;;;;6.53;3.80;;;;;;;11.44;77.67;100895.16;5056157;28;20049;-70
2022/12/05 06:40:11;;;;;;;6.22;3.92;;;;;;;11.45;77.67;100891.53;5055760;28;20053;-70
2022/12/05 06:42:39;;;;;;;6.25;3.85;;;;;;;11.45;77.67;100886.19;5056198;28;20041;-70
2022/12/05 06:45:10;;;;;;;5.85;3.58;;;;;;;11.46;77.62;100890.56;5055908;28;20430;-63
2022/12/05 06:47:38;;;;;;;5.60;3.50;;;;;;;11.46;77.57;100892.38;5054417;28;20091;-70
2022/12/05 06:50:08;;;;;;;6.15;3.75;;;;;;;11.47;77.46;100894.97;5043038;28;20053;-70
2022/12/05 06:52:36;;;;;;;5.80;3.70;;;;;;;11.47;77.49;100897.63;5044470;28;20058;-70
2022/12/05 06:55:05;;;;;;;5.97;3.88;;;;;;;11.46;77.43;100903.94;5045436;28;20148;-70
2022/12/05 06:57:33;;;;;;;6.50;3.78;;;;;;;11.46;77.68;100900.41;5047908;28;20420;-69
2022/12/05 07:02:45;;;;;;;6.40;4.22;;;;;;;11.45;77.48;100906.69;5043191;28;20041;-70
2022/12/05 07:05:13;;;;;;;6.40;4.13;;;;;;;11.45;77.30;100904.03;5043206;28;20048;-69
2022/12/05 07:07:41;;;;;;;6.13;3.72;;;;;;;11.42;77.53;100917.56;5045812;28;20052;-70
2022/12/05 07:10:09;;;;;;;5.57;3.90;;;;;;;11.42;77.42;100913.06;5041816;28;20049;-70
2022/12/05 07:12:38;;;;;;;6.80;4.10;;;;;;;11.42;77.37;100921.09;5035256;28;20141;-70
2022/12/05 07:15:07;;;;;;;7.32;4.20;;;;;;;11.43;77.37;100928.16;5033786;28;20052;-69
2022/12/05 07:17:36;;;;;;;6.03;4.35;;;;;;;11.39;77.79;100926.59;5035048;28;20052;-70
2022/12/05 07:20:09;;;;;;;6.15;3.95;;;;;;;11.39;77.78;100925.75;5039039;28;20498;-70
2022/12/05 07:22:37;;;;;;;6.32;4.28;;;;;;;11.38;77.63;100927.50;5044394;28;20061;-70
2022/12/05 07:25:06;;;;;;;6.65;4.10;;;;;;;11.38;77.53;100922.16;5049091;28;20056;-69
2022/12/05 07:27:34;;;;;;;6.30;4.20;;;;;;;11.38;77.62;100921.31;5051457;28;20099;-70
2022/12/05 07:30:03;;;;;;;6.07;3.90;;;;;;;11.38;77.77;100924.84;5054659;28;20037;-69
2022/12/05 07:32:32;;;;;;;5.97;3.90;;;;;;;11.38;77.74;100929.31;5054664;28;20067;-70
2022/12/05 07:35:00;;;;;;;6.20;4.07;;;;;;;11.39;77.76;100929.28;5051049;28;20045;-70
2022/12/05 07:37:30;;;;;;;5.93;3.63;;;;;;;11.41;77.42;100929.19;5052934;28;20360;-69
2022/12/05 07:40:00;;;;;;;6.20;3.92;;;;;;;11.41;77.52;100926.50;5054661;28;20422;-69
2022/12/05 07:42:28;;;;;;;6.20;3.90;;;;;;;11.41;77.63;100935.38;5054209;28;20049;-69
2022/12/05 07:44:56;;;;;;;6.10;3.92;;;;;;;11.40;77.76;100935.47;5054637;28;20041;-69
2022/12/05 07:47:24;;;;;;;5.43;3.70;;;;;;;11.38;77.72;100942.69;5053384;28;20075;-70
2022/12/05 07:49:53;;;;;;;6.72;3.78;;;;;;;11.39;77.63;100944.44;5035384;28;20049;-70
2022/12/05 07:52:21;;;;;;;7.10;4.00;;;;;;;11.40;77.50;100947.03;5034477;28;20395;-70
2022/12/05 07:54:51;;;;;;;5.85;4.05;;;;;;;11.36;77.64;100942.75;5034234;28;20494;-70
2022/12/05 07:57:19;;;;;;;7.65;3.78;;;;;;;11.37;77.89;100947.16;5061364;28;20102;-70
2022/12/05 07:59:47;;;;;;;5.88;3.67;;;;;;;11.39;77.59;100944.44;5055957;28;20055;-68
2022/12/05 08:02:15;;;;;;;5.65;3.72;;;;;;;11.39;77.52;100953.31;5062424;28;20390;-74
2022/12/05 08:04:43;;;;;;;6.18;3.88;;;;;;;11.38;77.55;100937.34;5052495;28;20129;-74
2022/12/05 08:07:11;;;;;;;5.53;3.65;;;;;;;11.39;77.63;100945.28;5049348;28;20495;-73
2022/12/05 08:09:40;;;;;;;5.90;3.80;;;;;;;11.39;77.51;100944.44;5053703;28;20539;-73
2022/12/05 08:12:09;;;;;;;6.95;3.78;;;;;;;11.38;77.63;100954.22;5053600;28;20495;-73
2022/12/05 08:14:37;;;;;;;6.65;3.70;;;;;;;11.32;77.65;100957.22;5053711;28;20245;-74
2022/12/05 08:17:05;;;;;;;6.63;3.90;;;;;;;11.33;77.71;100958.09;5052554;28;20419;-74
2022/12/05 08:19:34;;;;;;;6.45;4.32;;;;;;;11.34;77.63;100960.69;5053795;28;20092;-74
2022/12/05 08:22:02;;;;;;;6.80;3.85;;;;;;;11.33;77.73;100956.28;5053843;28;20040;-73
2022/12/05 08:24:30;;;;;;;7.05;3.80;;;;;;;11.35;77.92;100964.22;5053788;28;20077;-74
2022/12/05 08:26:58;;;;;;;7.57;4.07;;;;;;;11.35;77.52;100961.53;5054538;28;20458;-74
2022/12/05 08:29:33;;;;;;;5.97;4.03;;;;;;;11.35;77.75;100958.88;5054270;28;20041;-73
2022/12/05 08:32:01;;;;;;;5.35;3.63;;;;;;;11.33;77.93;100960.78;5053765;28;20068;-74
2022/12/05 08:34:30;;;;;;;5.38;3.55;;;;;;;11.32;77.96;100959.91;5054007;28;20111;-74
2022/12/05 08:36:58;;;;;;;6.13;3.70;;;;;;;11.34;77.85;100966.03;5053795;28;20044;-74
2022/12/05 08:39:27;;;;;;;5.38;3.88;;;;;;;11.36;77.60;100965.94;5053346;28;20075;-75
2022/12/05 08:42:02;;;;;;;6.20;3.90;;;;;;;11.38;77.72;100964.03;5052499;28;20127;-75
2022/12/05 08:44:30;;;;;;;6.78;4.00;;;;;;;11.35;77.61;100970.41;5053482;28;20095;-75
2022/12/05 08:46:59;;;;;;;6.90;3.90;;;;;;;11.34;77.82;100968.69;5053767;28;20090;-75
2022/12/05 08:49:28;;;;;;;5.07;3.63;;;;;;;11.37;77.68;100967.66;5052600;28;20049;-74
2022/12/05 08:51:56;;;;;;;6.05;3.90;;;;;;;11.38;77.38;100970.25;5053527;28;20545;-75
2022/12/05 08:54:25;;;;;;;6.82;3.80;;;;;;;11.38;77.27;100959.56;5052838;28;20132;-75
2022/12/05 08:56:53;;;;;;;6.30;3.65;;;;;;;11.39;77.38;100953.31;5053169;28;20053;-76
2022/12/05 08:59:21;;;;;;;6.13;3.60;;;;;;;11.42;77.23;100950.47;5053233;28;20502;-75
2022/12/05 09:01:50;;;;;;;5.68;3.78;;;;;;;11.42;77.27;100961.16;5053328;28;20045;-76
2022/12/05 09:04:20;;;;;;;6.07;4.03;;;;;;;11.43;77.33;100962.88;5053238;28;20059;-76
2022/12/05 09:06:48;;;;;;;7.45;3.95;;;;;;;11.44;77.02;100964.59;5053779;28;20103;-76
2022/12/05 09:09:16;;;;;;;5.93;4.20;;;;;;;11.45;77.08;100962.78;5053440;28;20040;-76
2022/12/05 09:11:47;;;;;;;6.47;3.67;;;;;;;11.44;77.11;100963.75;5052991;28;20077;-76
2022/12/05 09:14:16;;;;;;;5.65;3.58;;;;;;;11.45;77.35;100960.97;5053317;28;20045;-76
2022/12/05 09:16:45;;;;;;;7.28;4.13;;;;;;;11.44;77.29;100958.41;5052069;28;20098;-76
2022/12/05 09:19:16;;;;;;;6.63;4.05;;;;;;;11.45;77.20;100955.63;5053166;28;20446;-75
2022/12/05 09:21:46;;;;;;;6.00;3.85;;;;;;;11.46;77.25;100956.50;5052922;28;20127;-76
2022/12/05 09:24:14;;;;;;;5.72;3.72;;;;;;;11.44;77.28;100953.91;5052892;28;20575;-75
2022/12/05 09:26:43;;;;;;;6.05;3.70;;;;;;;11.39;77.45;100939.94;5053166;28;20114;-76
2022/12/05 09:29:12;;;;;;;4.75;3.40;;;;;;;11.45;77.26;100944.94;5053321;28;20075;-76
2022/12/05 09:31:46;;;;;;;6.68;3.72;;;;;;;11.45;77.25;100950.28;5053167;28;20057;-76
2022/12/05 09:34:16;;;;;;;6.22;3.95;;;;;;;11.43;77.42;100944.19;5053424;28;20482;-76
2022/12/05 09:36:50;;;;;;;5.63;3.88;;;;;;;11.43;77.36;100941.50;5052924;28;20099;-76
2022/12/05 09:39:28;;;;;;;5.32;3.33;;;;;;;11.42;77.65;100939.78;5053275;28;20049;-76
2022/12/05 09:42:17;;;;;;;7.00;4.22;;;;;;;11.43;77.73;100944.19;5052965;28;20049;-75
2022/12/05 09:45:14;;;;;;;6.40;4.05;;;;;;;11.43;77.40;100941.50;5052010;28;20045;-75
2022/12/05 09:47:49;;;;;;;6.32;4.00;;;;;;;11.45;77.46;100934.28;5052838;28;20104;-75
2022/12/05 09:50:21;;;;;;;5.10;3.42;;;;;;;11.44;77.50;100943.22;5052966;28;20041;-74
2022/12/05 09:53:05;;;;;;;5.82;3.75;;;;;;;11.44;77.46;100929.88;5052979;28;20041;-74
2022/12/05 09:55:39;;;;;;;;;;;;;;;11.45;77.59;100934.28;5053778;28;20072;-74
2022/12/05 09:58:22;;;;;;;5.32;3.80;;;;;;;11.45;77.59;100931.59;5052655;28;19921;-75
2022/12/05 10:00:55;;;;;;;5.80;3.87;;;;;;;11.45;77.29;100923.59;5052729;28;20513;-75
2022/12/05 10:03:32;;;;;;;5.88;3.88;;;;;;;11.45;77.34;100926.25;5052804;28;20037;-75
2022/12/05 10:06:15;;;;;;;6.53;4.05;;;;;;;11.45;77.46;100918.25;5053289;28;20420;-75
2022/12/05 10:08:55;;;;;;;;;;;;;;;11.46;77.36;100922.63;5054605;28;20051;-75
2022/12/05 10:11:30;;;;;;;5.82;3.78;;;;;;;11.47;77.11;100929.69;5056977;28;19925;-75
2022/12/05 10:14:06;;;;;;;6.22;4.00;;;;;;;11.48;77.24;100925.22;5057508;28;20091;-75
2022/12/05 10:16:38;;;;;;;6.03;3.67;;;;;;;11.47;77.16;100924.34;5056331;28;20044;-75
2022/12/05 10:19:12;;;;;;;6.63;4.47;;;;;;;11.47;77.23;100916.34;5056359;28;20045;-75
2022/12/05 10:21:50;;;;;;;6.43;3.90;;;;;;;11.50;77.19;100909.13;5056080;28;20329;-75
2022/12/05 10:24:26;;;;;;;6.47;3.90;;;;;;;11.51;77.21;100906.38;5056227;28;20044;-77
2022/12/05 10:27:05;;;;;;;7.55;4.00;;;;;;;11.52;76.97;100899.22;5055594;28;20060;-75
2022/12/05 10:29:38;;;;;;;5.78;3.72;;;;;;;11.52;77.01;100899.22;5056801;28;20045;-75
2022/12/05 10:32:14;;;;;;;5.63;3.58;;;;;;;11.53;77.05;100898.28;5056170;28;20077;-74
2022/12/05 10:34:44;;;;;;;5.85;3.97;;;;;;;11.53;76.95;100898.28;5056407;28;20049;-75
2022/12/05 10:37:17;;;;;;;5.70;4.07;;;;;;;11.53;77.01;100892.94;5056117;28;20056;-74
2022/12/05 10:39:48;;;;;;;6.25;4.13;;;;;;;11.50;77.27;100890.44;5056416;28;20048;-75
2022/12/05 10:42:19;;;;;;;5.90;3.92;;;;;;;11.49;77.24;100881.56;5056239;28;20377;-74
2022/12/05 10:44:50;;;;;;;6.57;4.25;;;;;;;11.49;77.27;100878.03;5055360;28;20561;-76
2022/12/05 10:47:18;;;;;;;5.95;3.67;;;;;;;11.50;77.30;100877.06;5055822;28;20045;-75
2022/12/05 10:49:46;;;;;;;5.70;4.00;;;;;;;11.53;77.12;100876.91;5055491;28;20103;-76
2022/12/05 10:52:15;;;;;;;6.07;3.80;;;;;;;11.50;77.42;100866.38;5055147;28;20045;-75
2022/12/05 10:54:51;;;;;;;6.57;3.97;;;;;;;11.52;77.21;100868.03;5055817;28;20506;-74
2022/12/05 10:57:24;;;;;;;6.07;4.25;;;;;;;11.55;77.02;100865.19;5055643;28;20072;-76
2022/12/05 10:59:53;;;;;;;6.03;4.10;;;;;;;11.55;77.32;100861.66;5055499;28;20044;-73
2022/12/05 11:02:25;;;;;;;5.85;3.78;;;;;;;11.54;77.25;100873.28;5055219;28;20072;-75
2022/12/05 11:04:54;;;;;;;7.43;4.45;;;;;;;11.56;77.19;100880.25;5055481;28;20045;-76
2022/12/05 11:07:31;;;;;;;6.38;3.78;;;;;;;11.56;77.03;100871.38;5055070;28;20493;-75
2022/12/05 11:10:02;;;;;;;6.40;4.28;;;;;;;11.55;77.22;100870.53;5054245;28;20053;-74
2022/12/05 11:12:38;;;;;;;6.47;4.00;;;;;;;11.54;77.14;100874.13;5055189;28;20059;-76
2022/12/05 11:15:23;;;;;;;7.13;3.80;;;;;;;11.55;77.42;100869.66;5055526;28;20395;-74
2022/12/05 11:17:52;;;;;;;5.85;3.75;;;;;;;11.55;77.12;100858.97;5054133;28;20115;-74
2022/12/05 11:20:40;;;;;;;5.25;3.70;;;;;;;11.55;77.12;100856.28;5054900;28;20141;-74
2022/12/05 11:23:32;;;;;;;7.05;4.03;;;;;;;11.58;77.18;100848.09;5053779;28;20053;-74
2022/12/05 11:26:01;;;;;;;6.03;3.95;;;;;;;11.59;76.97;100850.72;5049544;28;20122;-74
2022/12/05 11:28:32;;;;;;;5.93;3.95;;;;;;;11.59;76.99;100855.22;5054939;28;20133;-74
2022/12/05 11:31:06;;;;;;;7.45;4.72;;;;;;;11.60;76.96;100852.44;5054888;28;20133;-75
2022/12/05 11:33:36;;;;;;;7.50;4.23;;;;;;;11.58;77.11;100856.13;5055488;28;20466;-74
2022/12/05 11:36:12;;;;;;;5.47;4.35;;;;;;;11.59;77.13;100847.19;5053393;28;20127;-74
2022/12/05 11:38:41;;;;;;;6.53;4.38;;;;;;;11.60;76.99;100852.44;5055234;28;20055;-74
2022/12/05 11:41:29;;;;;;;6.38;4.05;;;;;;;11.61;77.01;100858.66;5054619;28;20049;-74
2022/12/05 11:44:20;;;;;;;7.53;4.32;;;;;;;11.58;77.11;100853.44;5054747;28;20051;-74
2022/12/05 11:47:06;;;;;;;5.15;3.70;;;;;;;11.60;76.95;100843.56;5053416;28;20127;-75
2022/12/05 11:50:02;;;;;;;6.43;4.18;;;;;;;11.62;77.06;100839.00;5053251;28;20053;-74
2022/12/05 11:52:46;;;;;;;6.63;4.40;;;;;;;11.60;76.92;100820.38;5054227;28;20053;-74
2022/12/05 11:55:16;;;;;;;6.17;4.27;;;;;;;11.59;76.88;100828.47;5054541;28;20045;-74